Time;durP1;ratioP1;P1;durP2;ratioP2;P2;SDS_P1;SDS_P2;PMS_P1;PMS_P2;Temp;Humidity;BMP_temperature;BMP_pressure;BME280_temperature;BME280_humidity;BME280_pressure;Samples;Min_cycle;Max_cycle;Signal;HPM_P1;HPM_P2
2022/10/22 00:01:10;;;;;;;10.32;6.90;;;16.00;99.90;;;;;;5085958;28;20063;-74
2022/10/22 00:03:38;;;;;;;12.00;8.48;;;16.00;99.90;;;;;;5087009;28;20044;-73
2022/10/22 00:06:06;;;;;;;14.45;8.02;;;15.90;99.90;;;;;;5082353;28;20047;-73
2022/10/22 00:08:34;;;;;;;13.00;7.15;;;15.70;99.90;;;;;;5050634;28;20051;-74
2022/10/22 00:11:28;;;;;;;13.02;7.45;;;15.80;99.90;;;;;;5087092;28;20112;-78
2022/10/22 00:13:56;;;;;;;12.35;7.88;;;15.80;99.90;;;;;;5081370;28;20545;-72
2022/10/22 00:16:24;;;;;;;8.57;6.82;;;15.80;99.90;;;;;;5067571;28;20052;-72
2022/10/22 00:18:52;;;;;;;10.50;7.00;;;15.80;99.90;;;;;;5082283;28;20126;-72
2022/10/22 00:21:19;;;;;;;10.48;7.03;;;15.80;99.90;;;;;;5087076;28;20047;-73
2022/10/22 00:23:47;;;;;;;10.27;6.80;;;15.90;99.90;;;;;;5084789;28;20406;-73
2022/10/22 00:26:15;;;;;;;9.43;6.90;;;15.80;99.90;;;;;;5070408;28;20546;-73
2022/10/22 00:28:43;;;;;;;10.23;7.30;;;15.80;99.90;;;;;;5067000;28;20044;-75
2022/10/22 00:31:11;;;;;;;11.05;6.93;;;15.90;99.90;;;;;;5068920;28;20048;-73
2022/10/22 00:33:39;;;;;;;8.18;5.95;;;15.90;99.90;;;;;;5071639;28;20052;-73
2022/10/22 00:36:07;;;;;;;9.98;5.97;;;15.90;99.90;;;;;;5089362;28;20043;-73
2022/10/22 00:38:35;;;;;;;11.35;7.20;;;15.90;99.90;;;;;;5088363;28;20517;-73
2022/10/22 00:41:03;;;;;;;11.07;6.78;;;15.90;99.90;;;;;;5089098;28;20440;-72
2022/10/22 00:43:31;;;;;;;13.23;7.60;;;15.90;99.90;;;;;;5071949;28;20029;-73
2022/10/22 00:45:59;;;;;;;11.07;6.70;;;15.90;99.90;;;;;;5089768;28;20117;-73
2022/10/22 00:48:30;;;;;;;12.43;7.95;;;15.90;99.90;;;;;;5088506;28;20079;-73
2022/10/22 00:51:05;;;;;;;9.88;6.88;;;15.80;99.90;;;;;;5087708;28;20133;-73
2022/10/22 00:53:40;;;;;;;10.32;7.18;;;15.80;99.90;;;;;;5094043;28;20059;-74
2022/10/22 00:56:09;;;;;;;10.82;6.88;;;15.80;99.90;;;;;;5100843;28;20419;-72
2022/10/22 00:58:45;;;;;;;12.65;7.75;;;15.90;99.90;;;;;;5100701;28;20505;-72
2022/10/22 01:01:20;;;;;;;13.23;7.28;;;15.90;99.90;;;;;;5078208;28;20044;-72
2022/10/22 01:03:48;;;;;;;12.18;6.63;;;15.90;99.90;;;;;;5095762;28;20116;-73
2022/10/22 01:06:25;;;;;;;7.72;5.57;;;15.90;99.90;;;;;;5083799;28;20050;-75
2022/10/22 01:09:07;;;;;;;10.10;7.07;;;16.00;99.90;;;;;;5075921;28;20044;-73
2022/10/22 01:11:58;;;;;;;13.15;7.25;;;16.00;99.90;;;;;;5096794;28;20052;-74
2022/10/22 01:15:03;;;;;;;13.65;8.18;;;16.00;99.90;;;;;;5073288;28;20389;-74
2022/10/22 01:17:41;;;;;;;11.88;8.25;;;15.90;99.90;;;;;;5069399;28;20045;-77
2022/10/22 01:20:21;;;;;;;10.18;6.97;;;15.90;99.90;;;;;;5052506;28;20091;-73
2022/10/22 01:23:14;;;;;;;8.75;6.25;;;15.90;99.90;;;;;;5072637;28;20052;-72
2022/10/22 01:26:19;;;;;;;12.25;8.55;;;15.90;99.90;;;;;;5073249;28;20078;-74
2022/10/22 01:29:00;;;;;;;13.07;7.30;;;15.90;99.90;;;;;;5084779;28;20044;-74
2022/10/22 01:31:40;;;;;;;12.23;6.72;;;15.90;99.90;;;;;;5086401;28;20400;-73
2022/10/22 01:34:10;;;;;;;8.63;6.22;;;15.90;99.90;;;;;;5072416;28;20070;-73
2022/10/22 01:36:39;;;;;;;9.05;6.53;;;15.90;99.90;;;;;;5073727;28;20058;-73
2022/10/22 01:39:07;;;;;;;10.40;7.20;;;15.90;99.90;;;;;;5075351;28;20111;-72
2022/10/22 01:41:35;;;;;;;12.48;7.90;;;15.90;99.90;;;;;;5074946;28;20147;-73
2022/10/22 01:44:03;;;;;;;18.42;8.32;;;15.80;99.90;;;;;;5092920;28;20051;-72
2022/10/22 01:46:31;;;;;;;12.32;7.38;;;15.80;99.90;;;;;;5091966;28;20047;-73
2022/10/22 01:49:32;;;;;;;12.93;7.72;;;15.70;99.90;;;;;;5092341;28;20051;-74
2022/10/22 01:52:38;;;;;;;12.45;7.28;;;15.70;99.90;;;;;;5092372;28;20059;-72
2022/10/22 01:55:24;;;;;;;11.63;8.60;;;15.70;99.90;;;;;;5010948;28;20159;-74
2022/10/22 01:58:06;;;;;;;9.33;7.20;;;15.60;99.90;;;;;;5076883;28;20136;-72
2022/10/22 02:00:38;;;;;;;13.57;8.93;;;15.60;99.90;;;;;;5056129;28;20477;-72
2022/10/22 02:03:20;;;;;;;13.55;9.80;;;15.50;99.90;;;;;;5084140;28;20052;-75
2022/10/22 02:05:53;;;;;;;14.77;8.52;;;15.50;99.90;;;;;;5075320;28;20089;-73
2022/10/22 02:08:30;;;;;;;11.52;8.13;;;15.50;99.90;;;;;;5058300;28;20062;-73
2022/10/22 02:10:58;;;;;;;;;;;15.40;99.90;;;;;;5075447;28;20043;-73
2022/10/22 02:13:40;;;;;;;10.18;8.18;;;15.40;99.90;;;;;;5091850;28;19924;-73
2022/10/22 02:16:11;;;;;;;15.05;8.48;;;15.40;99.90;;;;;;5074499;28;20059;-72
2022/10/22 02:18:43;;;;;;;11.98;8.20;;;15.40;99.90;;;;;;5092218;28;20059;-75
2022/10/22 02:21:11;;;;;;;13.52;9.18;;;15.40;99.90;;;;;;5092664;28;20069;-73
2022/10/22 02:23:39;;;;;;;13.05;8.10;;;15.40;99.90;;;;;;5091801;28;20135;-72
2022/10/22 02:26:20;;;;;;;10.60;8.00;;;15.40;99.90;;;;;;5092317;28;20126;-72
2022/10/22 02:28:57;;;;;;;14.15;7.72;;;15.30;99.90;;;;;;5091986;28;20047;-73
2022/10/22 02:31:29;;;;;;;10.07;7.35;;;15.20;99.90;;;;;;5091193;28;20048;-72
2022/10/22 02:34:01;;;;;;;13.57;8.68;;;15.20;99.90;;;;;;5090526;28;20055;-72
2022/10/22 02:36:30;;;;;;;10.48;8.10;;;15.10;99.90;;;;;;5091291;28;20048;-75
2022/10/22 02:38:58;;;;;;;11.10;7.38;;;15.20;99.90;;;;;;5091970;28;20044;-72
2022/10/22 02:41:27;;;;;;;13.43;8.05;;;15.10;99.90;;;;;;5090346;28;20150;-78
2022/10/22 02:43:55;;;;;;;12.38;8.15;;;15.00;99.90;;;;;;5073836;28;20155;-72
2022/10/22 02:46:24;;;;;;;11.98;8.25;;;15.00;99.90;;;;;;5091183;28;20093;-72
2022/10/22 02:48:52;;;;;;;12.02;8.55;;;15.00;99.90;;;;;;5090828;28;20452;-72
2022/10/22 02:51:20;;;;;;;14.80;9.07;;;15.00;99.90;;;;;;5073074;28;20050;-72
2022/10/22 02:53:48;;;;;;;12.80;9.10;;;14.90;99.90;;;;;;5073727;28;20149;-73
2022/10/22 02:56:16;;;;;;;16.48;9.70;;;14.90;99.90;;;;;;5073743;28;20125;-76
2022/10/22 02:58:43;;;;;;;14.35;9.27;;;14.90;99.90;;;;;;5056879;28;20060;-73
2022/10/22 03:01:11;;;;;;;11.77;8.65;;;15.00;99.90;;;;;;5091497;28;20044;-73
2022/10/22 03:03:40;;;;;;;12.55;8.35;;;15.00;99.90;;;;;;5056885;28;20048;-74
2022/10/22 03:06:08;;;;;;;14.27;7.93;;;15.00;99.90;;;;;;5074179;28;20351;-72
2022/10/22 03:08:36;;;;;;;10.32;8.23;;;15.00;99.90;;;;;;5073955;28;20036;-75
2022/10/22 03:11:03;;;;;;;13.13;8.68;;;15.10;99.90;;;;;;5090448;28;20051;-72
2022/10/22 03:13:31;;;;;;;15.40;8.32;;;15.10;99.90;;;;;;5072505;28;20097;-72
2022/10/22 03:15:59;;;;;;;9.60;7.57;;;15.10;99.90;;;;;;5073791;28;20447;-72
2022/10/22 03:18:27;;;;;;;12.05;7.60;;;15.10;99.90;;;;;;5073738;28;20508;-74
2022/10/22 03:21:08;;;;;;;10.35;8.05;;;15.10;99.90;;;;;;5091207;28;20089;-74
2022/10/22 03:23:38;;;;;;;10.68;7.55;;;15.10;99.90;;;;;;5090397;28;20051;-74
2022/10/22 03:26:07;;;;;;;10.75;7.90;;;15.10;99.90;;;;;;5073718;28;20101;-73
2022/10/22 03:28:37;;;;;;;10.98;8.20;;;15.10;99.90;;;;;;5072470;28;20048;-73
2022/10/22 03:31:05;;;;;;;13.23;7.45;;;15.10;99.90;;;;;;5089928;28;20036;-72
2022/10/22 03:33:33;;;;;;;11.70;8.30;;;15.10;99.90;;;;;;5091211;28;20592;-73
2022/10/22 03:36:01;;;;;;;9.35;6.93;;;15.00;99.90;;;;;;5089956;28;20482;-73
2022/10/22 03:38:29;;;;;;;13.25;7.53;;;15.00;99.90;;;;;;5090434;28;20048;-78
2022/10/22 03:40:57;;;;;;;14.43;7.10;;;15.00;99.90;;;;;;5073143;28;20054;-72
2022/10/22 03:43:24;;;;;;;11.35;7.03;;;15.10;99.90;;;;;;5089899;28;20074;-72
2022/10/22 03:45:52;;;;;;;13.55;7.45;;;15.00;99.90;;;;;;5090589;28;20095;-75
2022/10/22 03:48:20;;;;;;;9.05;6.28;;;15.00;99.90;;;;;;5090698;28;20071;-73
2022/10/22 03:50:48;;;;;;;11.93;7.60;;;15.00;99.90;;;;;;5072608;28;20075;-72
2022/10/22 03:53:15;;;;;;;13.18;7.50;;;15.10;99.90;;;;;;5089607;28;20052;-72
2022/10/22 03:55:43;;;;;;;8.95;7.32;;;15.00;99.90;;;;;;5089453;28;20036;-73
2022/10/22 03:58:11;;;;;;;11.60;7.65;;;15.00;99.90;;;;;;5090939;28;20044;-73
2022/10/22 04:00:38;;;;;;;9.55;7.30;;;15.00;99.90;;;;;;5072818;28;20142;-73
2022/10/22 04:03:06;;;;;;;10.43;8.13;;;15.00;99.90;;;;;;5072888;28;20115;-72
2022/10/22 04:05:33;;;;;;;9.68;6.85;;;15.00;99.90;;;;;;5090475;28;20827;-72
2022/10/22 04:08:01;;;;;;;9.45;7.03;;;15.10;99.90;;;;;;5076027;28;20041;-76
2022/10/22 04:10:28;;;;;;;9.70;6.60;;;15.10;99.90;;;;;;5068878;28;20174;-72
2022/10/22 04:12:56;;;;;;;11.43;7.43;;;15.20;99.90;;;;;;5052346;28;20101;-73
2022/10/22 04:15:26;;;;;;;10.45;6.85;;;15.20;99.90;;;;;;5036060;28;20143;-74
2022/10/22 04:17:54;;;;;;;11.35;6.60;;;15.10;99.90;;;;;;5069159;28;20156;-73
2022/10/22 04:20:22;;;;;;;14.77;7.82;;;15.10;99.90;;;;;;5070587;28;20071;-74
2022/10/22 04:22:49;;;;;;;12.43;7.97;;;15.00;99.90;;;;;;5035962;28;20526;-73
2022/10/22 04:25:17;;;;;;;14.60;9.00;;;15.00;99.90;;;;;;5035962;28;20059;-72
2022/10/22 04:27:45;;;;;;;11.50;7.40;;;15.00;99.90;;;;;;5069709;28;20094;-76
2022/10/22 04:30:13;;;;;;;11.57;7.05;;;15.10;99.90;;;;;;5068216;28;20050;-72
2022/10/22 04:32:40;;;;;;;8.90;6.35;;;15.10;99.90;;;;;;5069356;28;20055;-72
2022/10/22 04:35:08;;;;;;;11.80;7.07;;;15.10;99.90;;;;;;5069000;28;20056;-72
2022/10/22 04:37:35;;;;;;;10.68;7.68;;;15.10;99.90;;;;;;5068487;28;20052;-72
2022/10/22 04:40:04;;;;;;;10.10;7.18;;;15.20;99.90;;;;;;5051545;28;20040;-73
2022/10/22 04:42:31;;;;;;;9.20;7.25;;;15.20;99.90;;;;;;5069121;28;20498;-72
2022/10/22 04:44:59;;;;;;;11.75;8.25;;;15.20;99.90;;;;;;5051528;28;20052;-73
2022/10/22 04:47:27;;;;;;;10.35;7.40;;;15.20;99.90;;;;;;5037840;28;20040;-77
2022/10/22 04:49:54;;;;;;;12.18;7.32;;;15.30;99.90;;;;;;5088091;28;20047;-72
2022/10/22 04:52:22;;;;;;;11.73;7.13;;;15.30;99.90;;;;;;5088712;28;20402;-73
2022/10/22 04:54:49;;;;;;;13.25;6.93;;;15.30;99.90;;;;;;5071229;28;20053;-74
2022/10/22 04:57:17;;;;;;;13.38;7.43;;;15.30;99.90;;;;;;5088423;28;20039;-72
2022/10/22 04:59:44;;;;;;;13.30;6.80;;;15.30;99.90;;;;;;5089210;28;20535;-73
2022/10/22 05:02:12;;;;;;;12.30;6.53;;;15.30;99.90;;;;;;5070791;28;20146;-75
2022/10/22 05:04:39;;;;;;;12.90;6.78;;;15.30;99.90;;;;;;5070844;28;20244;-72
2022/10/22 05:07:07;;;;;;;9.20;6.20;;;15.30;99.90;;;;;;5088972;28;20490;-78
2022/10/22 05:09:35;;;;;;;10.23;6.03;;;15.20;99.90;;;;;;5073864;28;20055;-72
2022/10/22 05:12:05;;;;;;;8.40;6.63;;;15.20;99.90;;;;;;5074959;28;20440;-72
2022/10/22 05:14:32;;;;;;;9.07;6.55;;;15.20;99.90;;;;;;5075344;28;20559;-74
2022/10/22 05:17:00;;;;;;;10.27;6.53;;;15.20;99.90;;;;;;5075698;28;20097;-74
2022/10/22 05:19:32;;;;;;;10.15;7.35;;;15.30;99.90;;;;;;5091709;28;20051;-73
2022/10/22 05:22:01;;;;;;;11.73;5.40;;;15.30;99.90;;;;;;5093051;28;20040;-73
2022/10/22 05:24:30;;;;;;;10.27;7.07;;;15.40;99.90;;;;;;5091568;28;20138;-73
2022/10/22 05:26:59;;;;;;;11.32;8.32;;;15.40;99.90;;;;;;5075312;28;20433;-72
2022/10/22 05:29:27;;;;;;;11.13;7.90;;;15.40;99.90;;;;;;5074886;28;20059;-74
2022/10/22 05:31:55;;;;;;;9.65;6.95;;;15.40;99.90;;;;;;5091988;28;20081;-72
2022/10/22 05:34:22;;;;;;;8.63;6.13;;;15.50;99.90;;;;;;5091962;28;20135;-73
2022/10/22 05:36:50;;;;;;;9.85;6.55;;;15.60;99.90;;;;;;5075548;28;20064;-74
2022/10/22 05:39:18;;;;;;;11.40;6.57;;;15.70;99.90;;;;;;5074399;28;20051;-73
2022/10/22 05:41:45;;;;;;;9.10;6.30;;;15.80;99.90;;;;;;5092525;28;20779;-72
2022/10/22 05:44:13;;;;;;;9.15;6.93;;;15.90;99.90;;;;;;5070837;28;20364;-72
2022/10/22 05:46:42;;;;;;;8.55;6.25;;;15.90;99.90;;;;;;5071746;28;20090;-72
2022/10/22 05:49:15;;;;;;;13.13;6.93;;;16.10;99.90;;;;;;5082408;28;20572;-73
2022/10/22 05:51:42;;;;;;;9.10;7.10;;;16.20;99.90;;;;;;5074926;28;20056;-73
2022/10/22 05:54:17;;;;;;;10.18;7.45;;;16.20;99.90;;;;;;5058489;28;20044;-72
2022/10/22 05:56:45;;;;;;;9.15;6.85;;;16.30;99.90;;;;;;5091687;28;20052;-73
2022/10/22 05:59:13;;;;;;;10.82;7.22;;;16.40;99.90;;;;;;5091512;28;20032;-73
2022/10/22 06:01:40;;;;;;;11.07;5.95;;;16.60;99.90;;;;;;5074315;28;20578;-73
2022/10/22 06:04:10;;;;;;;9.25;6.78;;;16.80;99.90;;;;;;5057957;28;20063;-73
2022/10/22 06:06:42;;;;;;;8.98;6.22;;;17.00;99.90;;;;;;5091657;28;20501;-72
2022/10/22 06:09:21;;;;;;;9.32;6.72;;;17.20;99.90;;;;;;5091586;28;20044;-72
2022/10/22 06:11:49;;;;;;;9.65;6.88;;;17.40;99.90;;;;;;5091618;28;20046;-73
2022/10/22 06:14:19;;;;;;;8.82;6.15;;;17.60;99.90;;;;;;5091237;28;20052;-74
2022/10/22 06:16:48;;;;;;;8.75;6.13;;;17.80;99.90;;;;;;5058770;28;20143;-72
2022/10/22 06:19:18;;;;;;;11.35;5.57;;;18.00;99.90;;;;;;5085312;28;20037;-73
2022/10/22 06:21:46;;;;;;;10.88;7.00;;;18.00;99.90;;;;;;5069998;28;20040;-72
2022/10/22 06:24:15;;;;;;;9.80;6.03;;;18.30;99.90;;;;;;5070931;28;20051;-73
2022/10/22 06:26:43;;;;;;;8.15;4.68;;;18.60;99.90;;;;;;5054348;28;20105;-74
2022/10/22 06:29:11;;;;;;;7.63;5.90;;;18.80;99.90;;;;;;5070288;28;20047;-72
2022/10/22 06:31:39;;;;;;;6.97;5.38;;;18.90;99.90;;;;;;5070251;28;20048;-72
2022/10/22 06:34:10;;;;;;;7.85;4.80;;;19.00;99.90;;;;;;5072698;28;20105;-78
2022/10/22 06:36:41;;;;;;;5.90;4.50;;;19.10;99.90;;;;;;5070240;28;20405;-77
2022/10/22 06:39:12;;;;;;;7.60;5.63;;;19.00;99.90;;;;;;5037276;28;20045;-77
2022/10/22 06:41:40;;;;;;;9.25;5.00;;;19.10;99.90;;;;;;5066191;28;20055;-76
2022/10/22 06:44:13;;;;;;;6.80;5.30;;;19.10;99.90;;;;;;5087160;28;20056;-78
2022/10/22 06:46:41;;;;;;;7.65;4.95;;;19.00;99.90;;;;;;5089224;28;20536;-77
2022/10/22 06:49:13;;;;;;;6.60;4.25;;;18.80;99.90;;;;;;5062090;28;20040;-77
2022/10/22 06:51:41;;;;;;;5.78;4.32;;;18.90;99.90;;;;;;5088123;28;20086;-79
2022/10/22 06:54:09;;;;;;;6.03;4.55;;;19.00;99.90;;;;;;5088144;28;20060;-77
2022/10/22 06:56:37;;;;;;;6.65;4.63;;;19.10;99.90;;;;;;5072487;28;20048;-82
2022/10/22 06:59:04;;;;;;;8.65;5.60;;;19.20;99.90;;;;;;5078091;28;20127;-77
2022/10/22 07:01:34;;;;;;;7.22;4.68;;;19.20;99.90;;;;;;5068908;28;20091;-77
2022/10/22 07:04:01;;;;;;;8.15;6.10;;;19.40;99.90;;;;;;5085060;28;20125;-77
2022/10/22 07:06:29;;;;;;;5.72;4.57;;;19.40;99.90;;;;;;5055084;28;20047;-72
2022/10/22 07:08:58;;;;;;;6.28;4.32;;;19.50;99.90;;;;;;5055373;28;20677;-82
2022/10/22 07:11:29;;;;;;;6.35;4.43;;;19.50;99.90;;;;;;5033573;28;20474;-82
2022/10/22 07:13:58;;;;;;;13.73;5.53;;;19.70;99.90;;;;;;5084951;28;20477;-77
2022/10/22 07:16:26;;;;;;;8.27;5.75;;;19.90;99.90;;;;;;5071131;28;20394;-76
2022/10/22 07:18:54;;;;;;;9.80;5.55;;;20.00;99.90;;;;;;5075608;28;20494;-78
2022/10/22 07:21:24;;;;;;;10.10;5.53;;;20.10;99.90;;;;;;5084453;28;20059;-77
2022/10/22 07:23:52;;;;;;;8.55;5.32;;;20.00;99.90;;;;;;5086232;28;20042;-76
2022/10/22 07:26:20;;;;;;;8.35;5.35;;;20.20;99.90;;;;;;5061758;28;20059;-78
2022/10/22 07:28:47;;;;;;;6.43;4.63;;;20.30;99.90;;;;;;5093385;28;20142;-76
2022/10/22 07:31:16;;;;;;;5.43;3.92;;;20.30;99.90;;;;;;5091240;28;20040;-79
2022/10/22 07:33:44;;;;;;;6.78;4.10;;;20.30;99.90;;;;;;5074142;28;21320;-77
2022/10/22 07:36:16;;;;;;;6.82;4.47;;;20.40;99.90;;;;;;5085897;28;20032;-76
2022/10/22 07:38:45;;;;;;;6.72;4.28;;;20.60;99.90;;;;;;5053147;28;20406;-77
2022/10/22 07:41:15;;;;;;;7.53;4.10;;;20.50;99.90;;;;;;5069343;28;20065;-78
2022/10/22 07:43:43;;;;;;;6.15;3.97;;;20.70;99.90;;;;;;5087585;28;20490;-78
2022/10/22 07:46:11;;;;;;;9.18;4.65;;;20.80;99.90;;;;;;5089097;28;20104;-76
2022/10/22 07:48:40;;;;;;;6.28;3.78;;;20.80;99.90;;;;;;5058226;28;20048;-76
2022/10/22 07:51:08;;;;;;;7.13;4.43;;;20.90;99.90;;;;;;5069749;28;20059;-78
2022/10/22 07:53:36;;;;;;;7.78;5.18;;;20.80;99.90;;;;;;5086496;28;20066;-76
2022/10/22 07:56:04;;;;;;;8.48;5.38;;;20.80;99.90;;;;;;5049455;28;20048;-81
2022/10/22 07:58:32;;;;;;;10.15;6.00;;;21.00;99.90;;;;;;5087106;28;20089;-77
2022/10/22 08:01:01;;;;;;;6.43;5.00;;;21.30;99.90;;;;;;5084181;28;20090;-77
2022/10/22 08:03:29;;;;;;;7.85;5.00;;;21.30;99.90;;;;;;5061453;28;20048;-77
2022/10/22 08:05:57;;;;;;;7.68;5.22;;;21.10;99.90;;;;;;5087045;28;20093;-76
2022/10/22 08:08:25;;;;;;;6.13;4.47;;;21.20;99.90;;;;;;5066816;28;20470;-76
2022/10/22 08:10:55;;;;;;;7.88;5.10;;;21.20;99.90;;;;;;5087088;28;20047;-77
2022/10/22 08:13:23;;;;;;;6.50;4.68;;;21.10;99.90;;;;;;5085212;28;20044;-76
2022/10/22 08:15:51;;;;;;;7.35;4.68;;;21.20;99.90;;;;;;5087383;28;20434;-76
2022/10/22 08:18:18;;;;;;;7.18;5.60;;;21.30;99.90;;;;;;5083995;28;20063;-82
2022/10/22 08:20:46;;;;;;;9.48;5.47;;;21.60;99.90;;;;;;5087978;28;20044;-77
2022/10/22 08:23:13;;;;;;;10.60;5.55;;;21.70;99.90;;;;;;5084370;28;20085;-77
2022/10/22 08:25:41;;;;;;;6.63;5.03;;;21.80;99.90;;;;;;5083782;28;20059;-77
2022/10/22 08:28:09;;;;;;;9.07;6.35;;;21.80;99.90;;;;;;5083801;28;20161;-76
2022/10/22 08:30:37;;;;;;;9.20;5.90;;;22.00;99.90;;;;;;5087410;28;20131;-79
2022/10/22 08:33:05;;;;;;;7.13;5.38;;;22.20;99.90;;;;;;5077141;28;20059;-77
2022/10/22 08:35:33;;;;;;;6.85;5.82;;;22.20;99.90;;;;;;5068662;28;20045;-77
2022/10/22 08:38:01;;;;;;;11.32;5.75;;;22.20;99.90;;;;;;5058849;28;20669;-77
2022/10/22 08:40:37;;;;;;;8.15;6.15;;;22.20;99.90;;;;;;5058445;28;20075;-76
2022/10/22 08:43:10;;;;;;;6.10;5.15;;;22.20;99.90;;;;;;5057490;28;20282;-80
2022/10/22 08:46:23;;;;;;;7.40;5.20;;;22.30;99.90;;;;;;5084736;28;20044;-77
2022/10/22 08:48:59;;;;;;;7.63;4.30;;;22.20;99.90;;;;;;5053597;28;20054;-77
2022/10/22 08:51:30;;;;;;;9.27;5.87;;;22.40;99.90;;;;;;5073746;28;20040;-78
2022/10/22 08:54:16;;;;;;;8.68;5.15;;;22.50;99.90;;;;;;5083333;28;20304;-77
2022/10/22 08:56:53;;;;;;;8.10;5.45;;;22.40;99.90;;;;;;5074746;28;20135;-77
2022/10/22 08:59:43;;;;;;;9.38;5.43;;;22.50;99.90;;;;;;5086684;28;20415;-77
2022/10/22 09:02:46;;;;;;;7.32;5.85;;;22.80;99.90;;;;;;5075211;28;20048;-76
2022/10/22 09:05:26;;;;;;;6.90;5.13;;;23.10;99.90;;;;;;5046836;28;20139;-78
2022/10/22 09:07:56;;;;;;;13.43;8.35;;;23.10;99.90;;;;;;5090375;28;20085;-78
2022/10/22 09:10:35;;;;;;;12.43;7.13;;;23.20;99.90;;;;;;5056739;28;20058;-76
2022/10/22 09:13:03;;;;;;;11.05;7.03;;;23.10;99.90;;;;;;5086765;28;20048;-76
2022/10/22 09:15:31;;;;;;;11.20;6.85;;;23.20;99.90;;;;;;5066499;28;20121;-77
2022/10/22 09:18:11;;;;;;;9.00;6.20;;;23.40;99.90;;;;;;5085205;28;20047;-77
2022/10/22 09:21:12;;;;;;;9.00;6.00;;;23.30;99.90;;;;;;5087332;28;20455;-76
2022/10/22 09:24:05;;;;;;;7.97;6.03;;;23.20;99.90;;;;;;5077484;28;20075;-77
2022/10/22 09:26:37;;;;;;;8.60;5.78;;;23.40;99.90;;;;;;5066763;28;20560;-78
2022/10/22 09:29:06;;;;;;;7.35;5.25;;;23.50;99.90;;;;;;5067520;28;20613;-79
2022/10/22 09:31:34;;;;;;;7.80;4.90;;;23.50;99.90;;;;;;5065652;28;20139;-76
2022/10/22 09:34:06;;;;;;;7.70;5.25;;;23.40;99.90;;;;;;5074713;28;20514;-77
2022/10/22 09:36:34;;;;;;;7.53;5.13;;;23.60;99.90;;;;;;5086207;28;20113;-77
2022/10/22 09:39:03;;;;;;;6.88;5.50;;;23.80;99.90;;;;;;5076523;28;20054;-77
2022/10/22 09:41:31;;;;;;;8.35;5.53;;;23.90;99.90;;;;;;5089419;28;20048;-79
2022/10/22 09:43:59;;;;;;;9.27;5.18;;;24.00;99.90;;;;;;5065202;28;20505;-78
2022/10/22 09:46:29;;;;;;;7.88;5.05;;;24.00;99.90;;;;;;5087575;28;20048;-77
2022/10/22 09:49:05;;;;;;;6.22;4.90;;;24.10;99.90;;;;;;5057343;28;20050;-78
2022/10/22 09:51:57;;;;;;;7.80;5.22;;;24.00;99.90;;;;;;5080910;28;20055;-79
2022/10/22 09:54:40;;;;;;;8.50;5.47;;;24.10;99.90;;;;;;5069622;28;20140;-77
2022/10/22 09:57:17;;;;;;;8.80;5.00;;;24.10;99.90;;;;;;5054381;28;20079;-78
2022/10/22 09:59:48;;;;;;;9.13;5.10;;;24.00;99.90;;;;;;5084275;28;20051;-78
2022/10/22 10:02:22;;;;;;;7.90;5.72;;;23.60;99.90;;;;;;5058761;28;20058;-77
2022/10/22 10:05:05;;;;;;;8.57;4.97;;;23.50;99.90;;;;;;5038930;28;20110;-77
2022/10/22 10:07:35;;;;;;;7.95;4.78;;;23.50;99.90;;;;;;5053454;28;20036;-77
2022/10/22 10:10:31;;;;;;;7.63;5.15;;;23.70;99.90;;;;;;5052908;28;20658;-76
2022/10/22 10:13:23;;;;;;;7.60;6.07;;;23.70;99.90;;;;;;5069731;28;20124;-78
2022/10/22 10:16:08;;;;;;;6.05;4.78;;;23.80;99.90;;;;;;5069333;28;20055;-76
2022/10/22 10:18:58;;;;;;;6.57;5.18;;;23.90;99.90;;;;;;5053368;28;20147;-76
2022/10/22 10:21:39;;;;;;;7.05;4.70;;;23.70;99.90;;;;;;5053578;28;20056;-77
2022/10/22 10:24:39;;;;;;;6.07;4.85;;;23.90;99.90;;;;;;5036456;28;20526;-76
2022/10/22 10:27:29;;;;;;;5.93;4.88;;;24.10;99.90;;;;;;5069477;28;20056;-76
2022/10/22 10:30:16;;;;;;;6.97;5.03;;;24.00;99.90;;;;;;5081961;28;20044;-77
2022/10/22 10:32:47;;;;;;;6.95;5.07;;;23.80;99.90;;;;;;5066928;28;20496;-76
2022/10/22 10:35:21;;;;;;;7.45;4.90;;;23.80;99.90;;;;;;5069404;28;20045;-77
2022/10/22 10:38:11;;;;;;;7.30;4.85;;;24.00;99.90;;;;;;5066594;28;20159;-81
2022/10/22 10:40:58;;;;;;;8.50;4.80;;;24.00;99.90;;;;;;5069950;28;20059;-78
2022/10/22 10:43:35;;;;;;;9.95;5.10;;;23.90;99.90;;;;;;5088809;28;20040;-76
2022/10/22 10:46:06;;;;;;;6.97;5.15;;;23.90;99.90;;;;;;5078256;28;20127;-75
2022/10/22 10:48:54;;;;;;;7.57;5.25;;;23.90;99.90;;;;;;5081181;28;20063;-76
2022/10/22 10:51:25;;;;;;;6.07;4.72;;;24.00;99.90;;;;;;5099817;28;20152;-77
2022/10/22 10:54:03;;;;;;;8.35;5.28;;;24.10;99.90;;;;;;5080793;28;20088;-79
2022/10/22 10:56:46;;;;;;;9.35;5.20;;;24.10;99.90;;;;;;5096072;28;20508;-76
2022/10/22 10:59:41;;;;;;;6.53;5.38;;;24.10;99.90;;;;;;5072900;28;20056;-77
2022/10/22 11:02:33;;;;;;;7.30;5.25;;;24.20;99.90;;;;;;5072141;28;20525;-77
2022/10/22 11:05:10;;;;;;;8.25;5.47;;;24.20;99.90;;;;;;5070209;28;20060;-77
2022/10/22 11:07:46;;;;;;;7.32;5.03;;;23.70;99.90;;;;;;5068621;28;20114;-76
2022/10/22 11:10:29;;;;;;;5.47;4.65;;;23.80;99.90;;;;;;5090438;28;20342;-77
2022/10/22 11:13:14;;;;;;;7.30;5.03;;;23.90;99.90;;;;;;5089702;28;20494;-77
2022/10/22 11:15:47;;;;;;;6.53;5.40;;;24.20;99.90;;;;;;5094074;28;20116;-77
2022/10/22 11:18:36;;;;;;;8.57;5.28;;;24.10;99.90;;;;;;5063327;28;20751;-77
2022/10/22 11:21:16;;;;;;;11.88;6.80;;;24.00;99.90;;;;;;5071388;28;20055;-76
2022/10/22 11:23:59;;;;;;;5.95;4.93;;;24.10;99.90;;;;;;5078684;28;20041;-75
2022/10/22 11:26:53;;;;;;;9.27;5.53;;;23.80;99.90;;;;;;5069786;28;20047;-75
2022/10/22 11:29:26;;;;;;;7.32;4.88;;;23.70;99.90;;;;;;5042391;28;20064;-75
2022/10/22 11:31:55;;;;;;;7.40;6.25;;;23.90;99.90;;;;;;5083707;28;20508;-75
2022/10/22 11:34:32;;;;;;;11.77;5.00;;;24.10;99.90;;;;;;5053624;28;20063;-75
2022/10/22 11:37:03;;;;;;;10.57;5.43;;;24.10;99.90;;;;;;5088567;28;20048;-76
2022/10/22 11:39:58;;;;;;;9.82;6.30;;;24.20;99.90;;;;;;5091324;28;20051;-75
2022/10/22 11:42:43;;;;;;;7.05;5.25;;;24.20;99.90;;;;;;5048097;28;20324;-77
2022/10/22 11:45:14;;;;;;;8.45;5.45;;;24.00;99.90;;;;;;5054806;28;20109;-78
2022/10/22 11:48:10;;;;;;;7.95;5.53;;;23.90;99.90;;;;;;5068022;28;20044;-77
2022/10/22 11:50:53;;;;;;;8.80;5.93;;;24.00;99.90;;;;;;5088931;28;20040;-77
2022/10/22 11:53:35;;;;;;;6.65;5.32;;;24.10;99.90;;;;;;5088743;28;20097;-75
2022/10/22 11:56:23;;;;;;;9.35;5.93;;;24.50;99.90;;;;;;5071758;28;20147;-76
2022/10/22 11:58:52;;;;;;;7.10;5.15;;;24.50;99.90;;;;;;5089524;28;20047;-75
2022/10/22 12:01:24;;;;;;;7.18;5.40;;;24.50;99.90;;;;;;5069433;28;20501;-76
2022/10/22 12:03:58;;;;;;;7.45;5.85;;;24.50;99.90;;;;;;5085267;28;20474;-74
2022/10/22 12:06:27;;;;;;;6.43;5.10;;;24.30;99.90;;;;;;5087958;28;20401;-75
2022/10/22 12:09:00;;;;;;;7.28;5.80;;;24.00;99.90;;;;;;5071294;28;20111;-76
2022/10/22 12:11:27;;;;;;;10.38;5.80;;;24.10;99.90;;;;;;5067928;28;20036;-75
2022/10/22 12:14:01;;;;;;;9.18;5.57;;;24.30;99.90;;;;;;5076505;28;20054;-74
2022/10/22 12:16:32;;;;;;;7.63;4.78;;;24.30;99.90;;;;;;5079789;28;20048;-74
2022/10/22 12:19:29;;;;;;;6.60;4.60;;;24.00;99.90;;;;;;5074009;28;20091;-74
2022/10/22 12:22:05;;;;;;;7.95;5.55;;;24.00;99.90;;;;;;5058389;28;20055;-76
2022/10/22 12:24:44;;;;;;;8.73;5.47;;;24.00;99.90;;;;;;5057078;28;20094;-74
2022/10/22 12:27:25;;;;;;;10.00;6.22;;;24.00;99.90;;;;;;5084288;28;20152;-77
2022/10/22 12:30:00;;;;;;;6.80;5.38;;;24.10;99.90;;;;;;5086360;28;20048;-75
2022/10/22 12:32:36;;;;;;;11.73;5.20;;;24.20;99.90;;;;;;5047961;28;20048;-75
2022/10/22 12:35:07;;;;;;;7.43;5.35;;;23.80;99.90;;;;;;5086110;28;20051;-77
2022/10/22 12:37:36;;;;;;;7.43;5.68;;;23.50;99.90;;;;;;5086106;28;20598;-77
2022/10/22 12:40:24;;;;;;;7.70;5.53;;;23.30;99.90;;;;;;5070736;28;20524;-77
2022/10/22 12:43:10;;;;;;;8.40;5.82;;;23.40;99.90;;;;;;5052882;28;20660;-77
2022/10/22 12:45:39;;;;;;;7.55;5.25;;;23.40;99.90;;;;;;5088752;28;20040;-77
2022/10/22 12:48:22;;;;;;;9.82;5.93;;;23.40;99.90;;;;;;5069288;28;20052;-77
2022/10/22 12:50:57;;;;;;;6.85;5.18;;;23.40;99.90;;;;;;5077312;28;20501;-76
2022/10/22 12:53:38;;;;;;;8.05;6.32;;;23.40;99.90;;;;;;5089903;28;20155;-76
2022/10/22 12:56:22;;;;;;;6.30;4.72;;;23.30;99.90;;;;;;5080420;28;20051;-77
2022/10/22 12:58:57;;;;;;;9.13;5.07;;;23.40;99.90;;;;;;5065436;28;20135;-77
2022/10/22 13:01:28;;;;;;;6.47;5.00;;;23.30;99.90;;;;;;5082056;28;20386;-78
2022/10/22 13:04:33;;;;;;;8.35;5.05;;;23.40;99.90;;;;;;5087366;28;20085;-77
2022/10/22 13:07:13;;;;;;;9.27;5.57;;;23.40;99.90;;;;;;5047826;28;20794;-77
2022/10/22 13:09:57;;;;;;;7.57;5.13;;;23.40;99.90;;;;;;5084974;28;20062;-76
2022/10/22 13:12:26;;;;;;;7.47;5.22;;;23.30;99.90;;;;;;5065637;28;20045;-76
2022/10/22 13:14:54;;;;;;;7.68;5.18;;;23.30;99.90;;;;;;5059221;28;20054;-76